Tyne Valley, Canada
Current Conditions -  °F | °C
As of 9:48 PM on Thursday 27 Nov 2014 (Local Time) from CYYG Reporting Station
Snow Showers Snow Showers  
Wind Chill: -8°   Ceiling: 1900
Heat Index: -2°   Visibility: 8mi
Dew Point: -5°   Wind: 12mph
Humidity: 80%   Direction: 330°NNW
Pressure: 29.88"   Gusts: 20mph
Location:  46.57°N, 63.93°W
Report Text: CYYG 280148Z 33010G17KT 300V360 8SM -SHSN OVC019 M02/M05 A2988 RMK SC8 SLP120
Loading
Personal Weather Stations






























Interactive Weather Map New forecast layout! Learn more

10-Day Weather Forecast

Advertisements
Track Severe Weather on mobile